createdAt,value
2019-03-15T00:02:19.878Z,3.10
2019-03-15T00:04:51.159Z,3.10
2019-03-15T00:07:22.462Z,2.90
2019-03-15T00:09:53.712Z,3.10
2019-03-15T00:12:25.026Z,3.27
2019-03-15T00:14:56.415Z,3.10
2019-03-15T00:17:27.712Z,3.67
2019-03-15T00:19:59.272Z,3.20
2019-03-15T00:22:30.639Z,3.07
2019-03-15T00:25:01.960Z,2.67
2019-03-15T00:27:33.265Z,3.00
2019-03-15T00:30:06.202Z,4.10
2019-03-15T00:32:37.521Z,3.33
2019-03-15T00:35:09.682Z,3.27
2019-03-15T00:37:41.042Z,3.70
2019-03-15T00:40:14.722Z,3.17
2019-03-15T00:42:46.006Z,3.53
2019-03-15T00:45:17.316Z,2.90
2019-03-15T00:47:48.692Z,3.37
2019-03-15T00:50:19.994Z,3.07
2019-03-15T00:52:51.282Z,3.17
2019-03-15T00:55:22.571Z,3.87
2019-03-15T00:57:53.833Z,2.97
2019-03-15T01:00:25.237Z,3.63
2019-03-15T01:02:56.522Z,3.17
2019-03-15T01:05:27.873Z,2.70
2019-03-15T01:07:59.219Z,3.50
2019-03-15T01:10:30.568Z,3.50
2019-03-15T01:13:01.948Z,3.90
2019-03-15T01:15:33.270Z,3.80
2019-03-15T01:18:04.581Z,3.33
2019-03-15T01:20:35.850Z,2.87
2019-03-15T01:23:07.224Z,3.23
2019-03-15T01:25:38.505Z,2.83
2019-03-15T01:28:10.438Z,3.57
2019-03-15T01:30:41.760Z,2.63
2019-03-15T01:33:13.054Z,3.37
2019-03-15T01:35:44.340Z,3.40
2019-03-15T01:38:15.651Z,3.10
2019-03-15T01:40:48.806Z,3.47
2019-03-15T01:43:19.889Z,3.10
2019-03-15T01:45:51.202Z,3.33
2019-03-15T01:48:22.484Z,3.13
2019-03-15T01:50:53.815Z,3.87
2019-03-15T01:53:25.068Z,3.83
2019-03-15T01:55:56.350Z,4.10
2019-03-15T01:58:27.709Z,4.00
2019-03-15T02:00:59.001Z,3.97
2019-03-15T02:03:30.309Z,3.97
2019-03-15T02:06:01.633Z,4.07
2019-03-15T02:08:32.929Z,4.47
2019-03-15T02:11:04.284Z,3.73
2019-03-15T02:13:35.574Z,3.57
2019-03-15T02:16:06.905Z,4.60
2019-03-15T02:18:38.197Z,3.97
2019-03-15T02:21:09.507Z,4.00
2019-03-15T02:23:40.818Z,3.60
2019-03-15T02:26:12.120Z,3.70
2019-03-15T02:28:43.383Z,3.20
2019-03-15T02:31:14.642Z,3.60
2019-03-15T02:33:45.940Z,3.47
2019-03-15T02:36:17.242Z,3.27
2019-03-15T02:38:48.490Z,3.20
2019-03-15T02:41:19.823Z,3.30
2019-03-15T02:43:51.203Z,3.77
2019-03-15T02:46:22.477Z,3.30
2019-03-15T02:48:53.808Z,3.30
2019-03-15T02:51:25.170Z,2.97
2019-03-15T02:53:56.451Z,3.07
2019-03-15T02:56:27.771Z,3.30
2019-03-15T02:58:59.070Z,2.83
2019-03-15T03:01:30.393Z,2.87
2019-03-15T03:04:01.669Z,2.90
2019-03-15T03:06:32.914Z,3.00
2019-03-15T03:09:05.618Z,3.00
2019-03-15T03:11:36.888Z,2.93
2019-03-15T03:14:08.181Z,2.87
2019-03-15T03:16:39.464Z,3.47
2019-03-15T03:19:10.731Z,3.33
2019-03-15T03:21:42.311Z,3.43
2019-03-15T03:24:13.794Z,3.40
2019-03-15T03:26:45.115Z,2.80
2019-03-15T03:29:16.431Z,2.70
2019-03-15T03:31:47.787Z,3.07
2019-03-15T03:34:19.118Z,2.50
2019-03-15T03:36:50.391Z,2.73
2019-03-15T03:39:21.703Z,3.07
2019-03-15T03:41:52.955Z,3.03
2019-03-15T03:44:24.220Z,2.87
2019-03-15T03:46:55.511Z,3.10
2019-03-15T03:49:27.419Z,2.13
2019-03-15T03:51:58.832Z,2.80
2019-03-15T03:54:30.518Z,2.23
2019-03-15T03:57:01.987Z,3.00
2019-03-15T03:59:33.270Z,2.40
2019-03-15T04:02:04.669Z,2.80
2019-03-15T04:04:36.010Z,2.60
2019-03-15T04:07:07.269Z,3.13
2019-03-15T04:09:38.602Z,2.70
2019-03-15T04:12:09.847Z,2.80
2019-03-15T04:14:41.142Z,3.00
2019-03-15T04:17:12.461Z,3.57
2019-03-15T04:19:43.764Z,2.83
2019-03-15T04:22:16.988Z,3.03
2019-03-15T04:24:48.316Z,3.33
2019-03-15T04:27:19.651Z,3.60
2019-03-15T04:29:50.990Z,3.20
2019-03-15T04:32:22.319Z,2.80
2019-03-15T04:34:53.561Z,3.00
2019-03-15T04:37:24.893Z,3.17
2019-03-15T04:39:56.164Z,3.47
2019-03-15T04:42:27.450Z,3.30
2019-03-15T04:44:58.730Z,2.53
2019-03-15T04:47:30.027Z,2.70
2019-03-15T04:50:01.308Z,2.70
2019-03-15T04:52:32.564Z,2.80
2019-03-15T04:55:03.914Z,2.90
2019-03-15T04:57:35.238Z,2.43
2019-03-15T05:00:07.930Z,3.10
2019-03-15T05:02:39.236Z,2.70
2019-03-15T05:05:10.636Z,2.77
2019-03-15T05:07:41.865Z,2.47
2019-03-15T05:10:13.146Z,2.10
2019-03-15T05:12:44.379Z,2.50
2019-03-15T05:15:15.699Z,2.30
2019-03-15T05:17:46.985Z,2.60
2019-03-15T05:20:20.968Z,2.60
2019-03-15T05:22:51.284Z,2.60
2019-03-15T05:25:22.558Z,2.70
2019-03-15T05:27:53.857Z,2.80
2019-03-15T05:30:25.122Z,2.43
2019-03-15T05:32:56.409Z,2.60
2019-03-15T05:35:27.695Z,2.63
2019-03-15T05:38:02.051Z,2.57
2019-03-15T05:40:33.369Z,2.90
2019-03-15T05:43:04.723Z,3.10
2019-03-15T05:45:36.075Z,2.90
2019-03-15T05:48:07.374Z,2.57
2019-03-15T05:50:40.832Z,2.80
2019-03-15T05:53:11.688Z,2.83
2019-03-15T05:55:42.927Z,2.80
2019-03-15T05:58:14.253Z,2.77
2019-03-15T06:00:45.497Z,2.83
2019-03-15T06:03:16.859Z,3.53
2019-03-15T06:05:48.237Z,2.83
2019-03-15T06:08:19.577Z,3.10
2019-03-15T06:10:50.854Z,3.20
2019-03-15T06:13:22.378Z,2.87
2019-03-15T06:15:53.685Z,3.07
2019-03-15T06:18:24.975Z,3.20
2019-03-15T06:20:56.279Z,3.50
2019-03-15T06:23:27.633Z,3.23
2019-03-15T06:25:58.925Z,3.00
2019-03-15T06:28:30.215Z,3.40
2019-03-15T06:31:01.588Z,3.40
2019-03-15T06:33:32.882Z,2.97
2019-03-15T06:36:04.174Z,3.20
2019-03-15T06:38:35.420Z,3.80
2019-03-15T06:41:06.681Z,3.63
2019-03-15T06:43:38.026Z,3.20
2019-03-15T06:46:09.271Z,3.20
2019-03-15T06:48:40.605Z,3.67
2019-03-15T06:51:11.957Z,3.37
2019-03-15T06:53:43.221Z,3.60
2019-03-15T06:56:17.518Z,3.70
2019-03-15T06:58:48.781Z,3.90
2019-03-15T07:01:20.061Z,4.00
2019-03-15T07:03:51.402Z,3.33
2019-03-15T07:06:22.686Z,3.67
2019-03-15T07:08:54.026Z,3.40
2019-03-15T07:11:25.374Z,4.10
2019-03-15T07:13:56.707Z,3.70
2019-03-15T07:16:28.111Z,4.43
2019-03-15T07:18:59.390Z,3.53
2019-03-15T07:21:30.719Z,3.10
2019-03-15T07:24:04.084Z,3.87
2019-03-15T07:26:35.404Z,4.07
2019-03-15T07:29:06.794Z,4.00
2019-03-15T07:31:38.088Z,3.67
2019-03-15T07:34:09.356Z,3.80
2019-03-15T07:36:40.724Z,3.90
2019-03-15T07:39:12.935Z,3.80
2019-03-15T07:41:44.437Z,4.03
2019-03-15T07:44:15.709Z,4.10
2019-03-15T07:46:47.054Z,4.00
2019-03-15T07:49:18.401Z,3.83
2019-03-15T07:51:49.725Z,3.70
2019-03-15T07:54:21.105Z,3.90
2019-03-15T07:56:52.405Z,3.70
2019-03-15T07:59:23.712Z,3.63
2019-03-15T08:01:55.054Z,3.60
2019-03-15T08:04:26.408Z,4.10
2019-03-15T08:06:57.725Z,4.73
2019-03-15T08:09:29.056Z,6.47
2019-03-15T08:12:00.378Z,5.37
2019-03-15T08:14:31.678Z,5.33
2019-03-15T08:17:03.022Z,5.63
2019-03-15T08:19:34.344Z,5.27
2019-03-15T08:22:05.744Z,4.10
2019-03-15T08:24:37.053Z,4.53
2019-03-15T08:27:08.439Z,4.20
2019-03-15T08:29:39.865Z,4.07
2019-03-15T08:32:11.160Z,3.80
2019-03-15T08:34:42.591Z,3.70
2019-03-15T08:37:14.113Z,3.83
2019-03-15T08:39:45.535Z,3.63
2019-03-15T08:42:16.887Z,4.07
2019-03-15T08:44:50.628Z,4.23
2019-03-15T08:47:22.185Z,4.27
2019-03-15T08:49:53.506Z,4.37
2019-03-15T08:52:24.833Z,4.30
2019-03-15T08:55:05.039Z,4.47
2019-03-15T08:57:29.219Z,3.77
2019-03-15T09:00:00.480Z,3.70
2019-03-15T09:02:31.857Z,3.80
2019-03-15T09:05:03.231Z,3.73
2019-03-15T09:07:34.587Z,3.90
2019-03-15T09:10:21.882Z,3.97
2019-03-15T09:12:42.720Z,3.63
2019-03-15T09:15:20.038Z,3.73
2019-03-15T09:17:51.844Z,3.70
2019-03-15T09:20:29.623Z,3.50
2019-03-15T09:22:57.105Z,3.97
2019-03-15T09:25:31.102Z,3.90
2019-03-15T09:28:02.431Z,4.23
2019-03-15T09:30:33.808Z,4.13
2019-03-15T09:33:08.534Z,3.93
2019-03-15T09:35:40.247Z,4.10
2019-03-15T09:38:14.240Z,4.50
2019-03-15T09:40:46.683Z,4.50
2019-03-15T09:43:23.482Z,4.60
2019-03-15T09:45:55.733Z,4.60
2019-03-15T09:48:27.200Z,5.07
2019-03-15T09:51:00.841Z,4.40
2019-03-15T09:53:32.678Z,4.90
2019-03-15T09:56:04.489Z,4.67
2019-03-15T09:58:35.886Z,4.93
2019-03-15T10:01:07.830Z,5.30
2019-03-15T10:03:40.327Z,5.30
2019-03-15T10:06:15.797Z,6.20
2019-03-15T10:08:44.797Z,6.33
2019-03-15T10:11:17.387Z,6.63
2019-03-15T10:13:49.113Z,7.13
2019-03-15T10:16:23.499Z,7.20
2019-03-15T10:18:54.841Z,6.93
2019-03-15T10:21:28.727Z,6.93
2019-03-15T10:24:00.134Z,7.30
2019-03-15T10:26:31.667Z,7.57
2019-03-15T10:29:14.518Z,7.13
2019-03-15T10:31:36.117Z,7.20
2019-03-15T10:34:07.382Z,7.30
2019-03-15T10:36:38.670Z,6.93
2019-03-15T10:39:09.970Z,6.53
2019-03-15T10:41:41.368Z,6.53
2019-03-15T10:44:12.654Z,6.80
2019-03-15T10:46:44.044Z,6.17
2019-03-15T10:49:15.460Z,6.77
2019-03-15T10:51:47.874Z,6.30
2019-03-15T10:54:19.161Z,6.17
2019-03-15T10:56:50.499Z,6.13
2019-03-15T10:59:21.832Z,5.83
2019-03-15T11:01:53.204Z,5.83
2019-03-15T11:04:24.711Z,6.00
2019-03-15T11:06:56.109Z,5.90
2019-03-15T11:09:27.488Z,7.10
2019-03-15T11:11:58.893Z,8.40
2019-03-15T11:14:30.308Z,8.83
2019-03-15T11:17:02.051Z,9.20
2019-03-15T11:19:33.425Z,8.40
2019-03-15T11:22:04.751Z,7.97
2019-03-15T11:24:36.115Z,7.97
2019-03-15T11:27:07.510Z,7.87
2019-03-15T11:29:38.882Z,7.67
2019-03-15T11:32:10.332Z,7.40
2019-03-15T11:34:41.718Z,6.80
2019-03-15T11:37:13.125Z,7.63
2019-03-15T11:39:44.444Z,7.17
2019-03-15T11:42:15.862Z,7.87
2019-03-15T11:44:47.254Z,8.23
2019-03-15T11:47:18.685Z,8.33
2019-03-15T11:49:50.006Z,7.83
2019-03-15T11:52:21.412Z,7.50
2019-03-15T11:54:52.837Z,7.07
2019-03-15T11:57:24.182Z,8.53
2019-03-15T11:59:55.640Z,8.40
2019-03-15T12:02:27.103Z,8.90
2019-03-15T12:04:58.471Z,9.20
2019-03-15T12:07:29.891Z,9.20
2019-03-15T12:10:01.243Z,8.63
2019-03-15T12:12:32.963Z,9.67
2019-03-15T12:15:04.433Z,10.00
2019-03-15T12:17:35.801Z,9.93
2019-03-15T12:20:07.662Z,9.43
2019-03-15T12:22:39.101Z,10.27
2019-03-15T12:25:10.649Z,10.80
2019-03-15T12:27:42.030Z,9.60
2019-03-15T12:30:13.449Z,10.50
2019-03-15T12:32:44.843Z,10.40
2019-03-15T12:35:16.243Z,10.00
2019-03-15T12:37:47.679Z,9.40
2019-03-15T12:40:19.122Z,8.93
2019-03-15T12:42:50.463Z,9.10
2019-03-15T12:45:21.896Z,9.30
2019-03-15T12:47:53.211Z,9.20
2019-03-15T12:50:24.655Z,8.77
2019-03-15T12:52:56.088Z,8.93
2019-03-15T12:55:30.302Z,8.67
2019-03-15T12:58:02.512Z,8.17
2019-03-15T13:00:33.772Z,8.30
2019-03-15T13:03:05.775Z,8.03
2019-03-15T13:05:37.147Z,8.10
2019-03-15T13:08:09.571Z,8.43
2019-03-15T13:10:45.373Z,8.20
2019-03-15T13:13:16.783Z,7.00
2019-03-15T13:15:50.473Z,7.67
2019-03-15T13:18:21.775Z,6.40
2019-03-15T13:20:56.472Z,6.50
2019-03-15T13:23:27.768Z,6.30
2019-03-15T13:25:59.817Z,6.20
2019-03-15T13:28:32.621Z,6.03
2019-03-15T13:31:06.715Z,5.10
2019-03-15T13:33:38.495Z,5.50
2019-03-15T13:36:10.660Z,5.20
2019-03-15T13:38:42.074Z,4.77
2019-03-15T13:41:13.380Z,5.23
2019-03-15T13:43:44.856Z,5.40
2019-03-15T13:46:16.251Z,5.10
2019-03-15T13:48:48.032Z,5.43
2019-03-15T13:51:22.576Z,4.33
2019-03-15T13:53:52.452Z,5.23
2019-03-15T13:56:24.040Z,5.40
2019-03-15T13:58:57.603Z,5.57
2019-03-15T14:01:28.383Z,5.07
2019-03-15T14:04:00.137Z,4.77
2019-03-15T14:06:31.499Z,5.00
2019-03-15T14:09:03.023Z,5.37
2019-03-15T14:11:34.380Z,4.90
2019-03-15T14:14:05.702Z,4.97
2019-03-15T14:16:37.081Z,4.43
2019-03-15T14:19:08.428Z,4.97
2019-03-15T14:21:40.152Z,4.57
2019-03-15T14:24:11.489Z,4.83
2019-03-15T14:26:42.805Z,4.57
2019-03-15T14:29:14.167Z,4.23
2019-03-15T14:31:45.845Z,4.47
2019-03-15T14:34:17.188Z,4.30
2019-03-15T14:36:49.626Z,3.63
2019-03-15T14:39:22.117Z,4.00
2019-03-15T14:41:56.380Z,3.60
2019-03-15T14:44:27.700Z,3.90
2019-03-15T14:46:59.293Z,3.67
2019-03-15T14:49:30.600Z,3.90
2019-03-15T14:52:02.073Z,4.17
2019-03-15T14:54:33.503Z,4.03
2019-03-15T14:57:05.699Z,3.60
2019-03-15T14:59:37.029Z,3.73
2019-03-15T15:02:08.604Z,3.77
2019-03-15T15:04:39.945Z,3.47
2019-03-15T15:07:11.296Z,3.73
2019-03-15T15:09:42.619Z,3.40
2019-03-15T15:12:14.051Z,3.80
2019-03-15T15:14:45.346Z,3.33
2019-03-15T15:17:16.715Z,3.30
2019-03-15T15:19:48.076Z,3.13
2019-03-15T15:22:19.876Z,3.37
2019-03-15T15:24:52.050Z,3.07
2019-03-15T15:27:25.628Z,3.57
2019-03-15T15:29:56.531Z,3.00
2019-03-15T15:32:27.845Z,3.17
2019-03-15T15:34:59.169Z,2.83
2019-03-15T15:37:30.496Z,2.77
2019-03-15T15:40:01.824Z,2.90
2019-03-15T15:42:33.147Z,3.00
2019-03-15T15:45:04.635Z,2.90
2019-03-15T15:47:36.418Z,2.67
2019-03-15T15:50:08.031Z,2.83
2019-03-15T15:52:39.770Z,3.50
2019-03-15T15:55:11.378Z,2.20
2019-03-15T15:57:43.822Z,2.63
2019-03-15T16:00:16.983Z,2.80
2019-03-15T16:02:48.334Z,2.40
2019-03-15T16:05:19.618Z,3.00
2019-03-15T16:07:51.292Z,2.77
2019-03-15T16:10:22.621Z,2.40
2019-03-15T16:12:53.888Z,2.33
2019-03-15T16:15:25.243Z,2.90
2019-03-15T16:17:56.572Z,2.60
2019-03-15T16:20:27.891Z,3.30
2019-03-15T16:22:59.231Z,3.60
2019-03-15T16:25:30.571Z,3.90
2019-03-15T16:28:01.934Z,3.70
2019-03-15T16:30:33.262Z,3.47
2019-03-15T16:33:04.608Z,3.70
2019-03-15T16:35:37.512Z,3.53
2019-03-15T16:38:08.866Z,4.03
2019-03-15T16:40:41.471Z,4.00
2019-03-15T16:43:14.873Z,4.63
2019-03-15T16:45:46.762Z,4.10
2019-03-15T16:48:20.412Z,4.40
2019-03-15T16:50:53.110Z,3.33
2019-03-15T16:53:32.322Z,2.13
2019-03-15T16:56:06.596Z,1.90
2019-03-15T16:58:45.480Z,1.40
2019-03-15T17:01:16.535Z,1.50
2019-03-15T17:03:53.555Z,1.50
2019-03-15T17:06:29.076Z,1.53
2019-03-15T17:09:00.435Z,1.40
2019-03-15T17:11:33.091Z,1.93
2019-03-15T17:14:05.574Z,1.80
2019-03-15T17:16:36.941Z,1.70
2019-03-15T17:19:08.312Z,1.83
2019-03-15T17:21:39.990Z,1.70
2019-03-15T17:24:12.172Z,1.33
2019-03-15T17:26:43.624Z,1.30
2019-03-15T17:29:17.761Z,1.50
2019-03-15T17:31:51.611Z,1.50
2019-03-15T17:34:29.629Z,1.60
2019-03-15T17:37:06.775Z,1.70
2019-03-15T17:39:35.744Z,1.40
2019-03-15T17:42:09.954Z,1.77
2019-03-15T17:44:41.480Z,1.60
2019-03-15T17:47:13.112Z,1.77
2019-03-15T17:49:46.588Z,1.50
2019-03-15T17:52:17.951Z,1.83
2019-03-15T17:54:50.118Z,1.60
2019-03-15T17:57:22.338Z,1.70
2019-03-15T18:00:38.492Z,1.80
2019-03-15T18:03:20.504Z,1.50
2019-03-15T18:05:43.489Z,1.80
2019-03-15T18:08:14.825Z,1.50
2019-03-15T18:10:46.141Z,1.90
2019-03-15T18:13:17.484Z,1.87
2019-03-15T18:15:48.820Z,1.60
2019-03-15T18:18:20.142Z,1.63
2019-03-15T18:20:51.472Z,1.93
2019-03-15T18:23:22.867Z,2.60
2019-03-15T18:25:54.190Z,2.10
2019-03-15T18:28:26.747Z,2.00
2019-03-15T18:30:59.381Z,2.00
2019-03-15T18:33:30.823Z,1.93
2019-03-15T18:36:02.157Z,2.27
2019-03-15T18:38:33.490Z,2.73
2019-03-15T18:41:04.942Z,2.30
2019-03-15T18:43:36.258Z,2.17
2019-03-15T18:46:07.516Z,2.57
2019-03-15T18:48:38.850Z,2.40
2019-03-15T18:51:10.124Z,2.30
2019-03-15T18:53:41.414Z,2.60
2019-03-15T18:56:12.670Z,2.73
2019-03-15T18:58:43.989Z,2.60
2019-03-15T19:01:15.301Z,2.33
2019-03-15T19:03:46.582Z,3.20
2019-03-15T19:06:17.939Z,3.20
2019-03-15T19:08:49.243Z,3.07
2019-03-15T19:11:20.601Z,3.00
2019-03-15T19:13:51.968Z,2.93
2019-03-15T19:16:23.240Z,3.10
2019-03-15T19:18:54.565Z,2.80
2019-03-15T19:21:25.911Z,2.87
2019-03-15T19:23:57.278Z,3.27
2019-03-15T19:26:29.116Z,3.00
2019-03-15T19:29:00.585Z,3.00
2019-03-15T19:31:31.940Z,3.17
2019-03-15T19:34:03.329Z,2.90
2019-03-15T19:36:34.686Z,2.37
2019-03-15T19:39:07.325Z,2.90
2019-03-15T19:41:38.699Z,2.90
2019-03-15T19:44:10.025Z,2.60
2019-03-15T19:46:41.348Z,2.70
2019-03-15T19:49:12.670Z,3.53
2019-03-15T19:51:43.985Z,2.57
2019-03-15T19:54:15.352Z,2.63
2019-03-15T19:56:46.680Z,3.23
2019-03-15T19:59:18.008Z,2.90
2019-03-15T20:01:49.350Z,3.13
2019-03-15T20:04:20.721Z,2.67
2019-03-15T20:06:52.050Z,2.80
2019-03-15T20:09:23.441Z,2.70
2019-03-15T20:11:54.740Z,2.60
2019-03-15T20:14:26.144Z,2.70
2019-03-15T20:16:57.494Z,3.03
2019-03-15T20:19:28.842Z,2.90
2019-03-15T20:22:00.139Z,2.83
2019-03-15T20:24:31.508Z,2.93
2019-03-15T20:27:02.875Z,2.80
2019-03-15T20:29:34.303Z,3.37
2019-03-15T20:32:05.662Z,2.93
2019-03-15T20:34:36.930Z,2.80
2019-03-15T20:37:08.326Z,2.60
2019-03-15T20:39:39.669Z,3.13
2019-03-15T20:42:11.049Z,3.77
2019-03-15T20:44:42.400Z,2.47
2019-03-15T20:47:13.701Z,3.07
2019-03-15T20:49:45.133Z,2.70
2019-03-15T20:52:16.539Z,2.70
2019-03-15T20:54:47.906Z,3.70
2019-03-15T20:57:19.227Z,3.17
2019-03-15T20:59:50.534Z,4.07
2019-03-15T21:02:21.824Z,3.27
2019-03-15T21:04:53.166Z,4.30
2019-03-15T21:07:24.533Z,2.87
2019-03-15T21:09:55.868Z,2.83
2019-03-15T21:12:27.278Z,2.30
2019-03-15T21:14:58.672Z,2.93
2019-03-15T21:17:29.975Z,2.47
2019-03-15T21:20:01.366Z,2.27
2019-03-15T21:22:32.724Z,2.40
2019-03-15T21:25:04.190Z,3.17
2019-03-15T21:27:35.562Z,3.90
2019-03-15T21:30:09.535Z,3.00
2019-03-15T21:32:40.873Z,2.80
2019-03-15T21:35:12.253Z,2.57
2019-03-15T21:37:43.579Z,2.47
2019-03-15T21:40:14.966Z,2.57
2019-03-15T21:42:46.311Z,2.10
2019-03-15T21:45:18.541Z,2.33
2019-03-15T21:47:49.853Z,2.40
2019-03-15T21:50:21.167Z,2.27
2019-03-15T21:52:52.651Z,2.07
2019-03-15T21:55:23.999Z,2.00
2019-03-15T21:57:55.270Z,2.00
2019-03-15T22:00:26.556Z,2.50
2019-03-15T22:02:57.877Z,2.20
2019-03-15T22:05:29.180Z,2.27
2019-03-15T22:08:00.505Z,2.67
2019-03-15T22:10:31.834Z,2.53
2019-03-15T22:13:03.134Z,2.20
2019-03-15T22:15:34.512Z,2.13
2019-03-15T22:18:05.868Z,2.57
2019-03-15T22:20:37.179Z,2.70
2019-03-15T22:23:08.562Z,2.10
2019-03-15T22:25:39.881Z,3.07
2019-03-15T22:28:11.210Z,2.30
2019-03-15T22:30:42.558Z,2.73
2019-03-15T22:33:13.902Z,1.80
2019-03-15T22:35:45.192Z,2.30
2019-03-15T22:38:26.124Z,2.73
2019-03-15T22:40:49.559Z,2.37
2019-03-15T22:43:20.830Z,3.13
2019-03-15T22:45:52.127Z,2.50
2019-03-15T22:48:23.446Z,2.87
2019-03-15T22:50:54.788Z,3.33
2019-03-15T22:53:26.188Z,3.00
2019-03-15T22:55:57.488Z,2.50
2019-03-15T22:58:28.777Z,2.73
2019-03-15T23:01:00.064Z,2.27
2019-03-15T23:03:31.502Z,2.30
2019-03-15T23:06:02.745Z,2.30
2019-03-15T23:08:34.086Z,2.70
2019-03-15T23:11:05.352Z,3.20
2019-03-15T23:13:36.685Z,2.90
2019-03-15T23:16:07.970Z,3.13
2019-03-15T23:18:39.236Z,2.67
2019-03-15T23:21:10.595Z,3.10
2019-03-15T23:23:41.929Z,2.93
2019-03-15T23:26:13.272Z,2.60
2019-03-15T23:28:47.147Z,2.67
2019-03-15T23:31:17.586Z,2.77
2019-03-15T23:33:56.461Z,3.57
2019-03-15T23:36:28.045Z,3.30
2019-03-15T23:38:59.496Z,3.50
2019-03-15T23:41:30.818Z,2.67
2019-03-15T23:44:02.175Z,3.17
2019-03-15T23:46:35.834Z,2.80
2019-03-15T23:49:07.165Z,3.53
2019-03-15T23:51:38.524Z,3.00
2019-03-15T23:54:09.882Z,3.03
2019-03-15T23:56:41.184Z,2.97
2019-03-15T23:59:12.563Z,3.40
